Latest METARs, TAFs and NOTAMs for TIST


---------------------------------------------------------------------------
	(OBSERVATIONS)
TIST 180953Z AUTO 00000KT 10SM CLR 25/21 A2998 RMK AO2 SLP154
     T02500206=
TIST 180853Z AUTO 09003KT 10SM CLR 24/21 A2998 RMK AO2 SLP152
     T02440206 55000=
TIST 180753Z AUTO 09006KT 10SM CLR 25/21 A2997 RMK AO2 SLP148
     T02500206=
---------------------------------------------------------------------------
	(TERMINAL AREA FORECAST)
TIST 180520Z 1806/1906 08008KT P6SM VCSH FEW025
    FM181300 10012KT P6SM SCT025
    FM182300 09008KT P6SM FEW025
    FM190300 09010KT P6SM FEW030=
---------------------------------------------------------------------------
	(NOTAMS)


TIST 06/020 NAV ILS RWY 10 GP U/S. 30 JUN 17:02 2018 UNTIL 30
    DEC 17:00 2018. CREATED: 30 JUN 17:02 2018

TIST 08/012 OBST TOWER LGT (ASR 1244135) 182120.80N0645651.50W
    (2.0NM NE STT) 1718.2FT (255.9FT AGL) OUT OF SERVICE. 14
    AUG 16:58 2018 UNTIL 14 FEB 23:59 2019. CREATED: 14 AUG 16:58
    2018

TIST 08/025 NAV ILS RWY 10 LOC/GP/DME U/S. 31 AUG 19:55 2018
    UNTIL 15 JAN 20:00 2019 ESTIMATED. CREATED: 31 AUG 19:55
    2018

TIST 09/003 OBST TOWER LGT (ASR 1271367) 182032.50N0645738.20W
    (0.8NM ENE STT) 386.2FT (60.0FT AGL) OUT OF SERVICE. 05 SEP
    15:09 2018 UNTIL 22 DEC 23:59 2018. CREATED: 05 SEP 15:09
    2018

TIST 11/005 SVC TWR OPN DLY 1100-0130. 04 NOV 11:00 2018 UNTIL
    09 MAR 01:30 2019. CREATED: 03 NOV 17:32 2018

TIST 11/009 SVC PCL RWY 10 PAPI OUT OF SERVICE. 07 NOV 12:25
    2018 UNTIL 05 DEC 20:00 2018 ESTIMATED. CREATED: 07 NOV 12:26
    2018

TIST 11/011 OBST TOWER LGT (ASR 1234386) 182124.80N0645811.90W
    (1.2NM NE STT) 1732.0FT (250.0FT AGL) OUT OF SERVICE. 08
    NOV 12:25 2018 UNTIL 23 NOV 11:25 2018. CREATED: 08 NOV 12:24
    2018

TIST 11/013 RWY 10/28 CLSD EXC 1 HR PPR 340-201-2598 DLY 0200-0900.
    12 NOV 02:00 2018 UNTIL 01 DEC 09:00 2018. CREATED: 12 NOV
    01:44 2018

TIST 11/015 OBST TOWER LGT (ASR 1288906) 182124.60N0645816.70W
    (1.2NM NE STT) 1704.1FT (180.1FT AGL) OUT OF SERVICE. 17
    NOV 06:50 2018 UNTIL 01 DEC 13:00 2018. CREATED: 17 NOV 06:50
    2018

TIST A0183/18 ILS RWY 10 GP U/S. 30 JUN 17:02 2018 UNTIL 30 DEC
    17:00 2018. CREATED: 30 JUN 17:02 2018

TIST A0258/18 RWY 10 ILS LOC/GP/DME U/S. 31 AUG 19:55 2018 UNTIL
    15 JAN 20:00 2019 ESTIMATED. CREATED: 31 AUG 19:55 2018

TIST A0311/18 TWR OPN. DLY 1100-0130, 04 NOV 11:00 2018 UNTIL
    09 MAR 01:30 2019. CREATED: 03 NOV 17:34 2018

TIST A0318/18 PCL RWY 10 PAPI U/S. 07 NOV 12:25 2018 UNTIL 05
    DEC 20:00 2018 ESTIMATED. CREATED: 07 NOV 12:37 2018

TIST A0325/18 RWY 10/28 CLSD EXC 1 HR PPR 340-201-2598. DLY 0200-0900,
    12 NOV 02:00 2018 UNTIL 01 DEC 09:00 2018. CREATED: 12 NOV
    01:46 2018

---------------------------------------------------------------------------